Glenwood, Indiana
Current Conditions -  °F | °C
As of 4:53 AM on Thursday 29 Jan 2015 (Local Time) from KGEZ Reporting Station
Overcast Overcast  
Wind Chill: 29°   Ceiling: 8000
Heat Index: 39°   Visibility: 10mi
Dew Point: 25°   Wind: 20mph
Humidity: 57%   Direction: 170°S
Pressure: 29.85"   Gusts: NA
Location:  39.63°N, 85.3°W
Report Text: KGEZ 290953Z AUTO 17017KT 10SM OVC080 04/M04 A2985 RMK AO2 RAB05E36 PRESFR SLP113 P0000 T00391039
Loading
Personal Weather Stations






























Interactive Weather Map New forecast layout! Learn more

10-Day Weather Forecast

Advertisements
Track Severe Weather on mobile